Time;durP1;ratioP1;P1;durP2;ratioP2;P2;SDS_P1;SDS_P2;PMS_P1;PMS_P2;Temp;Humidity;BMP_temperature;BMP_pressure;BME280_temperature;BME280_humidity;BME280_pressure;Samples;Min_cycle;Max_cycle;Signal;HPM_P1;HPM_P2
2023/10/09 00:03:03;;;;;;;;;;;;;;;;;;5117783;28;19927;-51
2023/10/09 00:05:57;;;;;;;;;;;;;;;;;;5133009;27;19923;-51
2023/10/09 00:08:21;;;;;;;;;;;;;;;;;;5117382;28;19919;-51
2023/10/09 00:11:18;;;;;;;;;;;;;;;;;;5133528;28;19926;-51
2023/10/09 00:13:32;;;;;;;;;;;;;;;;;;5118911;28;20590;-51
2023/10/09 00:16:00;;;;;;;;;;;;;;;;;;5150726;27;19930;-51
2023/10/09 00:18:29;;;;;;;;;;;;;;;;;;5136847;27;19958;-51
2023/10/09 00:20:55;;;;;;;;;;;;;;;;;;5112024;28;20416;-51
2023/10/09 00:23:25;;;;;;;;;;;;;;;;;;5112213;28;19923;-51
2023/10/09 00:26:08;;;;;;;;;;;;;;;;;;5112551;28;20394;-50
2023/10/09 00:28:34;;;;;;;;;;;;;;;;;;5112355;28;19954;-51
2023/10/09 00:31:04;;;;;;;;;;;;;;;;;;5112820;28;19923;-51
2023/10/09 00:33:29;;;;;;;;;;;;;;;;;;5112532;28;19923;-51
2023/10/09 00:35:55;;;;;;;;;;;;;;;;;;5125528;28;19998;-52
2023/10/09 00:40:57;;;;;;;;;;;;;;;;;;5112095;28;19934;-51
2023/10/09 00:43:28;;;;;;;;;;;;;;;;;;5126431;28;19934;-51
2023/10/09 00:45:53;;;;;;;;;;;;;;;;;;5132955;28;19970;-51
2023/10/09 00:48:30;;;;;;;;;;;;;;;;;;5132234;28;20032;-51
2023/10/09 00:50:59;;;;;;;;;;;;;;;;;;5132746;28;19919;-51
2023/10/09 00:53:31;;;;;;;;;;;;;;;;;;5132483;28;19920;-51
2023/10/09 00:55:56;;;;;;;;;;;;;;;;;;5132729;28;19927;-51
2023/10/09 00:58:31;;;;;;;;;;;;;;;;;;5132139;28;19919;-51
2023/10/09 01:00:59;;;;;;;;;;;;;;;;;;5132364;28;19927;-51
2023/10/09 01:03:24;;;;;;;;;;;;;;;;;;5131894;28;19919;-51
2023/10/09 01:06:21;;;;;;;;;;;;;;;;;;5132477;28;19923;-51
2023/10/09 01:11:18;;;;;;;;;;;;;;;;;;5190382;27;20390;-51
2023/10/09 01:16:21;;;;;;;;;;;;;;;;;;5169739;27;19927;-52
2023/10/09 01:18:49;;;;;;;;;;;;;;;;;;5180518;27;19929;-51
2023/10/09 01:21:14;;;;;;;;;;;;;;;;;;5190710;27;19971;-52
2023/10/09 01:23:44;;;;;;;;;;;;;;;;;;5190546;27;19946;-51
2023/10/09 01:26:10;;;;;;;;;;;;;;;;;;5191085;27;19930;-51
2023/10/09 01:28:35;;;;;;;;;;;;;;;;;;5190729;27;19926;-50
2023/10/09 01:31:00;;;;;;;;;;;;;;;;;;5190954;27;20013;-52
2023/10/09 01:33:27;;;;;;;;;;;;;;;;;;5191125;27;19970;-52
2023/10/09 01:35:59;;;;;;;;;;;;;;;;;;5190680;27;19947;-52
2023/10/09 01:38:40;;;;;;;;;;;;;;;;;;5189548;27;19927;-51
2023/10/09 01:41:08;;;;;;;;;;;;;;;;;;5190338;27;19922;-51
2023/10/09 01:43:34;;;;;;;;;;;;;;;;;;5168851;27;19970;-52
2023/10/09 01:46:01;;;;;;;;;;;;;;;;;;5168965;27;19962;-50
2023/10/09 01:48:26;;;;;;;;;;;;;;;;;;5168568;27;19930;-51
2023/10/09 01:50:53;;;;;;;;;;;;;;;;;;5169660;27;20017;-51
2023/10/09 01:53:22;;;;;;;;;;;;;;;;;;5168494;27;19930;-51
2023/10/09 01:55:47;;;;;;;;;;;;;;;;;;5169176;27;20367;-52
2023/10/09 01:58:32;;;;;;;;;;;;;;;;;;5168368;27;20387;-51
2023/10/09 02:01:01;;;;;;;;;;;;;;;;;;5168616;27;19930;-50
2023/10/09 02:03:29;;;;;;;;;;;;;;;;;;5168198;27;20371;-51
2023/10/09 02:06:24;;;;;;;;;;;;;;;;;;5168672;27;19930;-50
2023/10/09 02:08:49;;;;;;;;;;;;;;;;;;5152686;27;19983;-51
2023/10/09 02:11:18;;;;;;;;;;;;;;;;;;5163966;27;19969;-50
2023/10/09 02:13:45;;;;;;;;;;;;;;;;;;5168466;27;19962;-51
2023/10/09 02:16:15;;;;;;;;;;;;;;;;;;5188451;27;19966;-51
2023/10/09 02:18:52;;;;;;;;;;;;;;;;;;5168178;27;20035;-50
2023/10/09 02:21:28;;;;;;;;;;;;;;;;;;5141653;27;19927;-51
2023/10/09 02:23:56;;;;;;;;;;;;;;;;;;5133514;28;19934;-51
2023/10/09 02:26:25;;;;;;;;;;;;;;;;;;5134049;28;19931;-51
2023/10/09 02:28:58;;;;;;;;;;;;;;;;;;5133480;27;19976;-50
2023/10/09 02:31:26;;;;;;;;;;;;;;;;;;5134000;28;19978;-52
2023/10/09 02:33:54;;;;;;;;;;;;;;;;;;5133356;28;20304;-50
2023/10/09 02:36:20;;;;;;;;;;;;;;;;;;5134090;28;19934;-51
2023/10/09 02:38:48;;;;;;;;;;;;;;;;;;5141546;27;19923;-52
2023/10/09 02:43:58;;;;;;;;;;;;;;;;;;5153778;27;19950;-51
2023/10/09 02:46:31;;;;;;;;;;;;;;;;;;5153627;27;20361;-51
2023/10/09 02:48:57;;;;;;;;;;;;;;;;;;5153630;27;19927;-51
2023/10/09 02:54:06;;;;;;;;;;;;;;;;;;5191655;27;20357;-51
2023/10/09 02:56:43;;;;;;;;;;;;;;;;;;5190745;27;19926;-52
2023/10/09 02:59:08;;;;;;;;;;;;;;;;;;5190649;27;19934;-52
2023/10/09 03:01:34;;;;;;;;;;;;;;;;;;5190623;27;19931;-51
2023/10/09 03:04:02;;;;;;;;;;;;;;;;;;5190617;27;19922;-51
2023/10/09 03:06:30;;;;;;;;;;;;;;;;;;5191288;27;19929;-51
2023/10/09 03:08:56;;;;;;;;;;;;;;;;;;5190708;27;19922;-51
2023/10/09 03:11:23;;;;;;;;;;;;;;;;;;5186599;27;19960;-51
2023/10/09 03:13:48;;;;;;;;;;;;;;;;;;5190090;27;19967;-51
2023/10/09 03:16:21;;;;;;;;;;;;;;;;;;5210956;27;19930;-51
2023/10/09 03:18:47;;;;;;;;;;;;;;;;;;5187484;27;19923;-52
2023/10/09 03:21:14;;;;;;;;;;;;;;;;;;5168682;27;20409;-51
2023/10/09 03:23:39;;;;;;;;;;;;;;;;;;5168459;27;19938;-51
2023/10/09 03:26:05;;;;;;;;;;;;;;;;;;5168855;27;20090;-51
2023/10/09 03:28:46;;;;;;;;;;;;;;;;;;5168841;27;20271;-50
2023/10/09 03:31:11;;;;;;;;;;;;;;;;;;5168669;27;19934;-52
2023/10/09 03:33:38;;;;;;;;;;;;;;;;;;5168677;27;20051;-51
2023/10/09 03:36:07;;;;;;;;;;;;;;;;;;5168894;27;20427;-51
2023/10/09 03:38:34;;;;;;;;;;;;;;;;;;5168333;27;19980;-51
2023/10/09 03:41:00;;;;;;;;;;;;;;;;;;5180685;27;19926;-52
2023/10/09 03:43:31;;;;;;;;;;;;;;;;;;5169529;27;19977;-52
2023/10/09 03:45:57;;;;;;;;;;;;;;;;;;5168188;27;20106;-50
2023/10/09 03:48:26;;;;;;;;;;;;;;;;;;5165591;27;19970;-50
2023/10/09 03:51:08;;;;;;;;;;;;;;;;;;5147940;27;19923;-51
2023/10/09 03:53:36;;;;;;;;;;;;;;;;;;5147300;27;19927;-51
2023/10/09 03:56:05;;;;;;;;;;;;;;;;;;5147356;27;20483;-51
2023/10/09 03:58:33;;;;;;;;;;;;;;;;;;5156629;27;19966;-51
2023/10/09 04:00:58;;;;;;;;;;;;;;;;;;5168764;27;20272;-50
2023/10/09 04:03:24;;;;;;;;;;;;;;;;;;5165500;27;19969;-51
2023/10/09 04:05:53;;;;;;;;;;;;;;;;;;5154668;27;19923;-50
2023/10/09 04:08:19;;;;;;;;;;;;;;;;;;5154666;27;19927;-50
2023/10/09 04:10:52;;;;;;;;;;;;;;;;;;5157083;27;19978;-52
2023/10/09 04:13:32;;;;;;;;;;;;;;;;;;5133166;28;20364;-52
2023/10/09 04:15:59;;;;;;;;;;;;;;;;;;5169042;27;19923;-50
2023/10/09 04:18:32;;;;;;;;;;;;;;;;;;5158089;27;20332;-52
2023/10/09 04:26:29;;;;;;;;;;;;;;;;;;5118240;28;20302;-50
2023/10/09 04:28:55;;;;;;;;;;;;;;;;;;5132987;27;19970;-52
2023/10/09 04:31:22;;;;;;;;;;;;;;;;;;5133774;28;19974;-51
2023/10/09 04:34:22;;;;;;;;;;;;;;;;;;5133542;28;19960;-51
2023/10/09 04:36:46;;;;;;;;;;;;;;;;;;5118106;28;19966;-51
2023/10/09 04:44:35;;;;;;;;;;;;;;;;;;5168424;27;19927;-51
2023/10/09 04:52:19;;;;;;;;;;;;;;;;;;5169834;27;19926;-49
2023/10/09 04:55:19;;;;;;;;;;;;;;;;;;5169874;27;19923;-51
2023/10/09 04:57:37;;;;;;;;;;;;;;;;;;5168714;27;19923;-50
2023/10/09 05:00:06;;;;;;;;;;;;;;;;;;5191300;27;19938;-51
2023/10/09 05:02:36;;;;;;;;;;;;;;;;;;5190752;27;19922;-50
2023/10/09 05:05:27;;;;;;;;;;;;;;;;;;5190596;27;19934;-51
2023/10/09 05:07:54;;;;;;;;;;;;;;;;;;5174685;27;19969;-51
2023/10/09 05:10:24;;;;;;;;;;;;;;;;;;5182210;27;20370;-51
2023/10/09 05:12:56;;;;;;;;;;;;;;;;;;5190610;27;19971;-51
2023/10/09 05:15:26;;;;;;;;;;;;;;;;;;5190423;27;19924;-51
2023/10/09 05:17:56;;;;;;;;;;;;;;;;;;5189895;27;19933;-51
2023/10/09 05:22:58;;;;;;;;;;;;;;;;;;5189896;27;19927;-51
2023/10/09 05:25:53;;;;;;;;;;;;;;;;;;5190565;27;20366;-52
2023/10/09 05:28:58;;;;;;;;;;;;;;;;;;5174390;27;20454;-49
2023/10/09 05:31:06;;;;;;;;;;;;;;;;;;5174923;27;20345;-52
2023/10/09 05:33:33;;;;;;;;;;;;;;;;;;5190527;27;19922;-52
2023/10/09 05:36:31;;;;;;;;;;;;;;;;;;5190743;27;19929;-52
2023/10/09 05:38:46;;;;;;;;;;;;;;;;;;5174472;27;19930;-51
2023/10/09 05:47:22;;;;;;;;;;;;;;;;;;5126472;28;19923;-51
2023/10/09 05:49:45;;;;;;;;;;;;;;;;;;5145441;27;20387;-52
2023/10/09 05:53:06;;;;;;;;;;;;;;;;;;5153293;27;20394;-51
2023/10/09 06:06:02;;;;;;;;;;;;;;;;;;5190905;27;20006;-51
2023/10/09 06:08:47;;;;;;;;;;;;;;;;;;5190032;27;19926;-52
2023/10/09 06:14:13;;;;;;;;;;;;;;;;;;5194920;27;19970;-50
2023/10/09 06:16:43;;;;;;;;;;;;;;;;;;5170110;27;19962;-52
2023/10/09 06:19:12;;;;;;;;;;;;;;;;;;5183934;27;19923;-52
2023/10/09 06:24:23;;;;;;;;;;;;;;;;;;5174224;27;20351;-51
2023/10/09 06:29:38;;;;;;;;;;;;;;;;;;5173790;27;20375;-50
2023/10/09 06:34:53;;;;;;;;;;;;;;;;;;5191550;27;19994;-51
2023/10/09 06:42:34;;;;;;;;;;;;;;;;;;5179675;27;19965;-50
2023/10/09 06:44:59;;;;;;;;;;;;;;;;;;5169481;27;19938;-51
2023/10/09 06:47:25;;;;;;;;;;;;;;;;;;5169414;27;19923;-51
2023/10/09 06:55:32;;;;;;;;;;;;;;;;;;5153306;27;19931;-51
2023/10/09 06:58:01;;;;;;;;;;;;;;;;;;5169282;27;20371;-52
2023/10/09 07:03:12;;;;;;;;;;;;;;;;;;5153308;27;19931;-50
2023/10/09 07:06:00;;;;;;;;;;;;;;;;;;5168368;27;19971;-51
2023/10/09 07:08:32;;;;;;;;;;;;;;;;;;5153075;27;19923;-51
2023/10/09 07:11:20;;;;;;;;;;;;;;;;;;5169186;27;19927;-51
2023/10/09 07:13:47;;;;;;;;;;;;;;;;;;5153091;27;19923;-51
2023/10/09 07:16:57;;;;;;;;;;;;;;;;;;5168235;27;19951;-51
2023/10/09 07:19:09;;;;;;;;;;;;;;;;;;5152516;27;19927;-51
2023/10/09 07:21:35;;;;;;;;;;;;;;;;;;5168812;27;20371;-51
2023/10/09 07:24:14;;;;;;;;;;;;;;;;;;5168077;27;19985;-51
2023/10/09 07:26:47;;;;;;;;;;;;;;;;;;5168867;27;19923;-51
2023/10/09 07:29:27;;;;;;;;;;;;;;;;;;5168575;27;19930;-51
2023/10/09 07:32:12;;;;;;;;;;;;;;;;;;5169047;27;19930;-51
2023/10/09 07:34:52;;;;;;;;;;;;;;;;;;5168602;27;19951;-51
2023/10/09 07:37:19;;;;;;;;;;;;;;;;;;5168011;27;19923;-51
2023/10/09 07:39:49;;;;;;;;;;;;;;;;;;5167997;27;20294;-52
2023/10/09 07:42:19;;;;;;;;;;;;;;;;;;5168497;27;19970;-51
2023/10/09 07:44:52;;;;;;;;;;;;;;;;;;5167938;27;19972;-50
2023/10/09 07:47:22;;;;;;;;;;;;;;;;;;5168132;27;19923;-51
2023/10/09 07:49:53;;;;;;;;;;;;;;;;;;5162342;27;20279;-51
2023/10/09 07:52:21;;;;;;;;;;;;;;;;;;5154524;27;20321;-50
2023/10/09 07:54:49;;;;;;;;;;;;;;;;;;5153462;27;19931;-51
2023/10/09 07:57:16;;;;;;;;;;;;;;;;;;5153804;27;19927;-51
2023/10/09 07:59:54;;;;;;;;;;;;;;;;;;5134959;27;19924;-50
2023/10/09 08:02:31;;;;;;;;;;;;;;;;;;5132977;28;20344;-51
2023/10/09 08:05:03;;;;;;;;;;;;;;;;;;5132991;28;20359;-51
2023/10/09 08:07:35;;;;;;;;;;;;;;;;;;5136031;27;19959;-51
2023/10/09 08:15:26;;;;;;;;;;;;;;;;;;5190710;27;20018;-51
2023/10/09 08:17:59;;;;;;;;;;;;;;;;;;5189053;27;19922;-50
2023/10/09 08:20:25;;;;;;;;;;;;;;;;;;5190678;27;19930;-52
2023/10/09 08:22:52;;;;;;;;;;;;;;;;;;5189786;27;19969;-51
2023/10/09 08:25:32;;;;;;;;;;;;;;;;;;5189782;27;19930;-51
2023/10/09 08:27:58;;;;;;;;;;;;;;;;;;5189198;27;19945;-52
2023/10/09 08:33:40;;;;;;;;;;;;;;;;;;5190785;27;20025;-51
2023/10/09 08:35:47;;;;;;;;;;;;;;;;;;5175217;27;19926;-51
2023/10/09 08:38:13;;;;;;;;;;;;;;;;;;5190139;27;19929;-51
2023/10/09 08:40:39;;;;;;;;;;;;;;;;;;5190206;27;20021;-52
2023/10/09 08:43:08;;;;;;;;;;;;;;;;;;5173070;27;19976;-52
2023/10/09 08:45:34;;;;;;;;;;;;;;;;;;5168779;27;20427;-52
2023/10/09 08:48:04;;;;;;;;;;;;;;;;;;5168473;27;19933;-52
2023/10/09 08:50:30;;;;;;;;;;;;;;;;;;5168791;27;19927;-50
2023/10/09 08:52:55;;;;;;;;;;;;;;;;;;5169074;27;20025;-50
2023/10/09 08:55:21;;;;;;;;;;;;;;;;;;5169247;27;19974;-51
2023/10/09 08:57:46;;;;;;;;;;;;;;;;;;5168082;27;20006;-52
2023/10/09 09:00:12;;;;;;;;;;;;;;;;;;5169166;27;20321;-51
2023/10/09 09:02:38;;;;;;;;;;;;;;;;;;5169123;27;19927;-51
2023/10/09 09:05:03;;;;;;;;;;;;;;;;;;5168672;27;20010;-50
2023/10/09 09:07:32;;;;;;;;;;;;;;;;;;5164102;27;20021;-50
2023/10/09 09:09:57;;;;;;;;;;;;;;;;;;5161202;27;19923;-52
2023/10/09 09:12:23;;;;;;;;;;;;;;;;;;5168548;27;20034;-52
2023/10/09 09:14:50;;;;;;;;;;;;;;;;;;5168855;27;20375;-51
2023/10/09 09:17:18;;;;;;;;;;;;;;;;;;5168624;27;20272;-51
2023/10/09 09:19:43;;;;;;;;;;;;;;;;;;5168591;27;20013;-51
2023/10/09 09:22:13;;;;;;;;;;;;;;;;;;5169009;27;19926;-51
2023/10/09 09:24:39;;;;;;;;;;;;;;;;;;5167237;27;19923;-52
2023/10/09 09:27:12;;;;;;;;;;;;;;;;;;5154524;27;19945;-50
2023/10/09 09:29:38;;;;;;;;;;;;;;;;;;5154688;27;19927;-51
2023/10/09 09:32:20;;;;;;;;;;;;;;;;;;5155242;27;20339;-50
2023/10/09 09:34:46;;;;;;;;;;;;;;;;;;5154944;27;19923;-52
2023/10/09 09:37:14;;;;;;;;;;;;;;;;;;5154834;27;19923;-52
2023/10/09 09:39:39;;;;;;;;;;;;;;;;;;5154688;27;20385;-51
2023/10/09 09:42:24;;;;;;;;;;;;;;;;;;5154467;27;19970;-52
2023/10/09 09:44:50;;;;;;;;;;;;;;;;;;5153957;27;19959;-52
2023/10/09 09:47:23;;;;;;;;;;;;;;;;;;5153652;27;20695;-51
2023/10/09 09:49:49;;;;;;;;;;;;;;;;;;5153660;27;19993;-50
2023/10/09 09:52:18;;;;;;;;;;;;;;;;;;5153335;27;20363;-51
2023/10/09 09:54:43;;;;;;;;;;;;;;;;;;5153869;27;19976;-51
2023/10/09 09:57:09;;;;;;;;;;;;;;;;;;5153887;27;19923;-51
2023/10/09 09:59:35;;;;;;;;;;;;;;;;;;5152789;27;19958;-52
2023/10/09 10:02:06;;;;;;;;;;;;;;;;;;5153068;27;19946;-52
2023/10/09 10:04:35;;;;;;;;;;;;;;;;;;5132734;28;19967;-52
2023/10/09 10:07:08;;;;;;;;;;;;;;;;;;5138903;27;19923;-52
2023/10/09 10:09:38;;;;;;;;;;;;;;;;;;5153497;27;19987;-50
2023/10/09 10:12:09;;;;;;;;;;;;;;;;;;5154182;27;19924;-52
2023/10/09 10:14:38;;;;;;;;;;;;;;;;;;5153437;27;19966;-51
2023/10/09 10:17:06;;;;;;;;;;;;;;;;;;5153585;27;19923;-52
2023/10/09 10:19:31;;;;;;;;;;;;;;;;;;5153195;27;19934;-52
2023/10/09 10:22:01;;;;;;;;;;;;;;;;;;5153319;27;19966;-51
2023/10/09 10:24:51;;;;;;;;;;;;;;;;;;5153501;27;19930;-51
2023/10/09 10:27:18;;;;;;;;;;;;;;;;;;5138131;27;20424;-52
2023/10/09 10:29:46;;;;;;;;;;;;;;;;;;5153438;27;19966;-52
2023/10/09 10:32:11;;;;;;;;;;;;;;;;;;5154078;27;19927;-51
2023/10/09 10:34:37;;;;;;;;;;;;;;;;;;5154034;27;19970;-50
2023/10/09 10:37:06;;;;;;;;;;;;;;;;;;5152735;27;20351;-52
2023/10/09 10:39:46;;;;;;;;;;;;;;;;;;5152773;27;19924;-52
2023/10/09 10:42:33;;;;;;;;;;;;;;;;;;5153406;27;20299;-52
2023/10/09 10:44:57;;;;;;;;;;;;;;;;;;5136699;27;19939;-50
2023/10/09 10:47:24;;;;;;;;;;;;;;;;;;5153409;27;20009;-50
2023/10/09 10:49:57;;;;;;;;;;;;;;;;;;5153448;27;20362;-51
2023/10/09 10:52:35;;;;;;;;;;;;;;;;;;5152116;27;19931;-47
2023/10/09 10:55:17;;;;;;;;;;;;;;;;;;5153616;27;20363;-51
2023/10/09 10:58:14;;;;;;;;;;;;;;;;;;5152621;27;20295;-47
2023/10/09 11:03:13;;;;;;;;;;;;;;;;;;5141432;27;20434;-50
2023/10/09 11:05:39;;;;;;;;;;;;;;;;;;5149779;27;20378;-49
2023/10/09 11:08:05;;;;;;;;;;;;;;;;;;5145716;27;20014;-50
2023/10/09 11:10:31;;;;;;;;;;;;;;;;;;5140779;27;19930;-52
2023/10/09 11:13:30;;;;;;;;;;;;;;;;;;5152149;27;19934;-52
2023/10/09 11:16:14;;;;;;;;;;;;;;;;;;5137591;27;19954;-52
2023/10/09 11:18:28;;;;;;;;;;;;;;;;;;5137314;27;19935;-51
2023/10/09 11:20:56;;;;;;;;;;;;;;;;;;5152846;27;19923;-51
2023/10/09 11:23:35;;;;;;;;;;;;;;;;;;5151727;27;19969;-52
2023/10/09 11:26:40;;;;;;;;;;;;;;;;;;5152298;27;19931;-50
2023/10/09 11:28:56;;;;;;;;;;;;;;;;;;5136881;27;20303;-52
2023/10/09 11:31:22;;;;;;;;;;;;;;;;;;5152737;27;19923;-51
2023/10/09 11:33:51;;;;;;;;;;;;;;;;;;5152516;27;20321;-50
2023/10/09 11:36:16;;;;;;;;;;;;;;;;;;5152733;27;19923;-51
2023/10/09 11:38:45;;;;;;;;;;;;;;;;;;5151734;27;19995;-50
2023/10/09 11:41:18;;;;;;;;;;;;;;;;;;5152492;27;19923;-51
2023/10/09 11:43:51;;;;;;;;;;;;;;;;;;5151754;27;19930;-51
2023/10/09 11:46:36;;;;;;;;;;;;;;;;;;5152345;27;19923;-50
2023/10/09 11:49:15;;;;;;;;;;;;;;;;;;5136498;27;19927;-50
2023/10/09 11:52:03;;;;;;;;;;;;;;;;;;5152519;27;19938;-51
2023/10/09 11:54:26;;;;;;;;;;;;;;;;;;5136941;27;19975;-52
2023/10/09 11:56:55;;;;;;;;;;;;;;;;;;5152539;27;20010;-52
2023/10/09 11:59:23;;;;;;;;;;;;;;;;;;5151239;27;20360;-52
2023/10/09 12:01:52;;;;;;;;;;;;;;;;;;5152388;27;19984;-52
2023/10/09 12:04:18;;;;;;;;;;;;;;;;;;5148986;27;19938;-52
2023/10/09 12:06:44;;;;;;;;;;;;;;;;;;5146522;27;19923;-51
2023/10/09 12:09:16;;;;;;;;;;;;;;;;;;5151620;27;19951;-52
2023/10/09 12:11:42;;;;;;;;;;;;;;;;;;5151893;27;19979;-52
2023/10/09 12:14:23;;;;;;;;;;;;;;;;;;5151612;27;19923;-52
2023/10/09 12:16:49;;;;;;;;;;;;;;;;;;5152579;27;19968;-52
2023/10/09 12:19:15;;;;;;;;;;;;;;;;;;5136746;27;19974;-51
2023/10/09 12:21:42;;;;;;;;;;;;;;;;;;5131847;28;19955;-51
2023/10/09 12:24:11;;;;;;;;;;;;;;;;;;5139273;27;19971;-50
2023/10/09 12:26:39;;;;;;;;;;;;;;;;;;5151601;27;20035;-50
2023/10/09 12:29:10;;;;;;;;;;;;;;;;;;5138155;27;20064;-52
2023/10/09 12:31:36;;;;;;;;;;;;;;;;;;5131913;28;19991;-52
2023/10/09 12:34:02;;;;;;;;;;;;;;;;;;5131367;28;20444;-51
2023/10/09 12:36:27;;;;;;;;;;;;;;;;;;5131340;28;19958;-51
2023/10/09 12:38:54;;;;;;;;;;;;;;;;;;5130537;27;19924;-51
2023/10/09 12:41:25;;;;;;;;;;;;;;;;;;5131178;28;19923;-52
2023/10/09 12:43:51;;;;;;;;;;;;;;;;;;5129948;28;19965;-52
2023/10/09 12:46:17;;;;;;;;;;;;;;;;;;5130952;28;19927;-52
2023/10/09 12:48:46;;;;;;;;;;;;;;;;;;5130651;27;20285;-51
2023/10/09 12:51:16;;;;;;;;;;;;;;;;;;5130938;28;20355;-52
2023/10/09 12:53:41;;;;;;;;;;;;;;;;;;5130864;28;19924;-51
2023/10/09 12:56:07;;;;;;;;;;;;;;;;;;5131204;28;20072;-51
2023/10/09 12:58:37;;;;;;;;;;;;;;;;;;5130618;27;19931;-51
2023/10/09 13:01:09;;;;;;;;;;;;;;;;;;5132892;27;20355;-51
2023/10/09 13:03:38;;;;;;;;;;;;;;;;;;5134483;27;19927;-51
2023/10/09 13:06:07;;;;;;;;;;;;;;;;;;5159785;27;19927;-51
2023/10/09 13:08:35;;;;;;;;;;;;;;;;;;5156420;27;19927;-51
2023/10/09 13:11:04;;;;;;;;;;;;;;;;;;5134325;28;19927;-51
2023/10/09 13:13:39;;;;;;;;;;;;;;;;;;5137343;27;19930;-50
2023/10/09 13:16:06;;;;;;;;;;;;;;;;;;5155251;27;19923;-50
2023/10/09 13:18:31;;;;;;;;;;;;;;;;;;5146391;27;19930;-51
2023/10/09 13:20:57;;;;;;;;;;;;;;;;;;5134950;28;19928;-51
2023/10/09 13:23:33;;;;;;;;;;;;;;;;;;5134383;28;19924;-51
2023/10/09 13:26:06;;;;;;;;;;;;;;;;;;5142803;27;20023;-50
2023/10/09 13:28:40;;;;;;;;;;;;;;;;;;5153260;27;19934;-50
2023/10/09 13:31:10;;;;;;;;;;;;;;;;;;5154935;27;19923;-51
2023/10/09 13:33:36;;;;;;;;;;;;;;;;;;5155109;27;19961;-51
2023/10/09 13:36:02;;;;;;;;;;;;;;;;;;5155336;27;19927;-51
2023/10/09 13:38:28;;;;;;;;;;;;;;;;;;5154046;27;19934;-50
2023/10/09 13:40:53;;;;;;;;;;;;;;;;;;5155075;27;19931;-51
2023/10/09 13:43:18;;;;;;;;;;;;;;;;;;5154236;27;20026;-51
2023/10/09 13:45:49;;;;;;;;;;;;;;;;;;5154891;27;19972;-52
2023/10/09 13:48:17;;;;;;;;;;;;;;;;;;5154263;27;19954;-51
2023/10/09 13:50:43;;;;;;;;;;;;;;;;;;5155171;27;19946;-51
2023/10/09 13:53:11;;;;;;;;;;;;;;;;;;5154627;27;20005;-49
2023/10/09 13:55:43;;;;;;;;;;;;;;;;;;5154580;27;19966;-50
2023/10/09 13:58:13;;;;;;;;;;;;;;;;;;5153899;27;19923;-51
2023/10/09 14:00:42;;;;;;;;;;;;;;;;;;5154247;27;19927;-51
2023/10/09 14:03:19;;;;;;;;;;;;;;;;;;5153572;27;20295;-49
2023/10/09 14:05:54;;;;;;;;;;;;;;;;;;5164809;27;19923;-51
2023/10/09 14:08:21;;;;;;;;;;;;;;;;;;5159375;27;19984;-50
2023/10/09 14:10:48;;;;;;;;;;;;;;;;;;5133005;28;19927;-50
2023/10/09 14:13:13;;;;;;;;;;;;;;;;;;5132765;27;20420;-51
2023/10/09 14:15:41;;;;;;;;;;;;;;;;;;5139883;27;19931;-50
2023/10/09 14:18:08;;;;;;;;;;;;;;;;;;5152960;27;19925;-51
2023/10/09 14:20:34;;;;;;;;;;;;;;;;;;5151589;27;20059;-51
2023/10/09 14:23:06;;;;;;;;;;;;;;;;;;5138256;27;20014;-49
2023/10/09 14:25:31;;;;;;;;;;;;;;;;;;5139223;27;20348;-51
2023/10/09 14:27:57;;;;;;;;;;;;;;;;;;5137298;27;20182;-49
2023/10/09 14:30:30;;;;;;;;;;;;;;;;;;5139188;27;20002;-50
2023/10/09 14:32:56;;;;;;;;;;;;;;;;;;5139139;27;19962;-50
2023/10/09 14:35:26;;;;;;;;;;;;;;;;;;5138747;27;19934;-50
2023/10/09 14:37:53;;;;;;;;;;;;;;;;;;5139002;27;19938;-50
2023/10/09 14:40:21;;;;;;;;;;;;;;;;;;5139453;27;19975;-50
2023/10/09 14:42:46;;;;;;;;;;;;;;;;;;5138789;27;20164;-51
2023/10/09 14:45:21;;;;;;;;;;;;;;;;;;5139074;27;19939;-50
2023/10/09 14:47:47;;;;;;;;;;;;;;;;;;5139270;27;19959;-51
2023/10/09 14:50:13;;;;;;;;;;;;;;;;;;5139308;27;20347;-49
2023/10/09 14:52:39;;;;;;;;;;;;;;;;;;5139741;27;19931;-49
2023/10/09 14:55:04;;;;;;;;;;;;;;;;;;5140005;27;21212;-50
2023/10/09 14:57:33;;;;;;;;;;;;;;;;;;5139165;27;20014;-50
2023/10/09 14:59:59;;;;;;;;;;;;;;;;;;5139689;27;19973;-51
2023/10/09 15:02:24;;;;;;;;;;;;;;;;;;5139516;27;19923;-51
2023/10/09 15:04:52;;;;;;;;;;;;;;;;;;5138949;27;20452;-51
2023/10/09 15:07:18;;;;;;;;;;;;;;;;;;5139491;27;19934;-49
2023/10/09 15:10:04;;;;;;;;;;;;;;;;;;5138644;27;20019;-50
2023/10/09 15:12:29;;;;;;;;;;;;;;;;;;5138518;27;20332;-51
2023/10/09 15:14:56;;;;;;;;;;;;;;;;;;5138959;27;19935;-51
2023/10/09 15:17:22;;;;;;;;;;;;;;;;;;5138694;27;19989;-50
2023/10/09 15:19:47;;;;;;;;;;;;;;;;;;5138320;27;20303;-51
2023/10/09 15:22:12;;;;;;;;;;;;;;;;;;5147673;27;20009;-51
2023/10/09 15:24:38;;;;;;;;;;;;;;;;;;5152131;27;19959;-51
2023/10/09 15:27:05;;;;;;;;;;;;;;;;;;5152522;27;19923;-51
2023/10/09 15:29:32;;;;;;;;;;;;;;;;;;5151326;27;19926;-50
2023/10/09 15:32:04;;;;;;;;;;;;;;;;;;5152674;27;20452;-50
2023/10/09 15:34:31;;;;;;;;;;;;;;;;;;5152799;27;19968;-46
2023/10/09 15:36:56;;;;;;;;;;;;;;;;;;5152818;27;19931;-49
2023/10/09 15:39:23;;;;;;;;;;;;;;;;;;5151712;27;19923;-50
2023/10/09 15:41:50;;;;;;;;;;;;;;;;;;5152480;27;19963;-49
2023/10/09 15:44:16;;;;;;;;;;;;;;;;;;5151380;27;19934;-49
2023/10/09 15:46:44;;;;;;;;;;;;;;;;;;5152165;27;19923;-50
2023/10/09 15:49:11;;;;;;;;;;;;;;;;;;5151471;27;20013;-50
2023/10/09 15:51:37;;;;;;;;;;;;;;;;;;5152375;27;19942;-50
2023/10/09 15:54:02;;;;;;;;;;;;;;;;;;5152438;27;19923;-49
2023/10/09 15:56:28;;;;;;;;;;;;;;;;;;5152798;27;19923;-47
2023/10/09 15:58:53;;;;;;;;;;;;;;;;;;5152446;27;20006;-50
2023/10/09 16:01:19;;;;;;;;;;;;;;;;;;5152248;27;20014;-49
2023/10/09 16:03:47;;;;;;;;;;;;;;;;;;5154506;27;19953;-49
2023/10/09 16:06:13;;;;;;;;;;;;;;;;;;5165809;27;19928;-49
2023/10/09 16:08:38;;;;;;;;;;;;;;;;;;5150777;27;19931;-50
2023/10/09 16:11:04;;;;;;;;;;;;;;;;;;5151680;27;19923;-49
2023/10/09 16:13:29;;;;;;;;;;;;;;;;;;5151257;27;20312;-50
2023/10/09 16:15:59;;;;;;;;;;;;;;;;;;5151894;27;19923;-51
2023/10/09 16:18:24;;;;;;;;;;;;;;;;;;5151389;27;19930;-51
2023/10/09 16:20:50;;;;;;;;;;;;;;;;;;5151430;27;19963;-51
2023/10/09 16:23:17;;;;;;;;;;;;;;;;;;5151447;27;20025;-51
2023/10/09 16:25:42;;;;;;;;;;;;;;;;;;5151817;27;19930;-50
2023/10/09 16:28:08;;;;;;;;;;;;;;;;;;5151346;27;20017;-51
2023/10/09 16:30:35;;;;;;;;;;;;;;;;;;5151721;27;19971;-50
2023/10/09 16:33:04;;;;;;;;;;;;;;;;;;5151256;27;19923;-51
2023/10/09 16:35:30;;;;;;;;;;;;;;;;;;5152667;27;19946;-51
2023/10/09 16:37:57;;;;;;;;;;;;;;;;;;5154666;27;20010;-51
2023/10/09 16:40:23;;;;;;;;;;;;;;;;;;5155318;27;20274;-51
2023/10/09 16:42:49;;;;;;;;;;;;;;;;;;5155230;27;20006;-51
2023/10/09 16:45:16;;;;;;;;;;;;;;;;;;5154950;27;19965;-51
2023/10/09 16:47:41;;;;;;;;;;;;;;;;;;5155267;27;19972;-51
2023/10/09 16:50:09;;;;;;;;;;;;;;;;;;5155570;27;20316;-51
2023/10/09 16:52:37;;;;;;;;;;;;;;;;;;5155066;27;20343;-51
2023/10/09 16:55:08;;;;;;;;;;;;;;;;;;5155702;27;19926;-51
2023/10/09 16:57:34;;;;;;;;;;;;;;;;;;5155341;27;19923;-51
2023/10/09 16:59:59;;;;;;;;;;;;;;;;;;5155307;27;19930;-51
2023/10/09 17:02:27;;;;;;;;;;;;;;;;;;5155237;27;20359;-51
2023/10/09 17:04:54;;;;;;;;;;;;;;;;;;5167664;27;19926;-50
2023/10/09 17:07:23;;;;;;;;;;;;;;;;;;5159338;27;19933;-51
2023/10/09 17:09:48;;;;;;;;;;;;;;;;;;5154454;27;19947;-51
2023/10/09 17:12:17;;;;;;;;;;;;;;;;;;5155413;27;19923;-51
2023/10/09 17:14:42;;;;;;;;;;;;;;;;;;5154718;27;19968;-51
2023/10/09 17:17:08;;;;;;;;;;;;;;;;;;5155397;27;19993;-50
2023/10/09 17:19:35;;;;;;;;;;;;;;;;;;5154734;27;19930;-49
2023/10/09 17:22:10;;;;;;;;;;;;;;;;;;5154769;27;19935;-51
2023/10/09 17:24:36;;;;;;;;;;;;;;;;;;5155181;27;20406;-51
2023/10/09 17:27:01;;;;;;;;;;;;;;;;;;5155044;27;19970;-51
2023/10/09 17:29:27;;;;;;;;;;;;;;;;;;5154439;27;19923;-52
2023/10/09 17:31:52;;;;;;;;;;;;;;;;;;5155683;27;19927;-51
2023/10/09 17:34:17;;;;;;;;;;;;;;;;;;5154284;27;20381;-51
2023/10/09 17:36:43;;;;;;;;;;;;;;;;;;5155134;27;20014;-50
2023/10/09 17:39:11;;;;;;;;;;;;;;;;;;5154334;27;20017;-51
2023/10/09 17:41:38;;;;;;;;;;;;;;;;;;5154988;27;19927;-51
2023/10/09 17:44:03;;;;;;;;;;;;;;;;;;5154420;27;19974;-51
2023/10/09 17:46:29;;;;;;;;;;;;;;;;;;5154428;27;19927;-50
2023/10/09 17:48:56;;;;;;;;;;;;;;;;;;5154555;27;20010;-51
2023/10/09 17:51:21;;;;;;;;;;;;;;;;;;5154962;27;19967;-50
2023/10/09 17:53:47;;;;;;;;;;;;;;;;;;5154916;27;19982;-50
2023/10/09 17:56:13;;;;;;;;;;;;;;;;;;5155034;27;20056;-50
2023/10/09 17:58:39;;;;;;;;;;;;;;;;;;5154173;27;19927;-51
2023/10/09 18:01:06;;;;;;;;;;;;;;;;;;5154784;27;19927;-51
2023/10/09 18:03:31;;;;;;;;;;;;;;;;;;5150260;27;20283;-50
2023/10/09 18:05:57;;;;;;;;;;;;;;;;;;5170020;27;19935;-50
2023/10/09 18:08:25;;;;;;;;;;;;;;;;;;5153422;27;20006;-51
2023/10/09 18:10:50;;;;;;;;;;;;;;;;;;5153851;27;20403;-50
2023/10/09 18:13:17;;;;;;;;;;;;;;;;;;5153853;27;20010;-51
2023/10/09 18:15:43;;;;;;;;;;;;;;;;;;5153983;27;20274;-51
2023/10/09 18:18:09;;;;;;;;;;;;;;;;;;5154268;27;19927;-51
2023/10/09 18:20:35;;;;;;;;;;;;;;;;;;5154458;27;20371;-51
2023/10/09 18:23:00;;;;;;;;;;;;;;;;;;5153933;27;20371;-50
2023/10/09 18:25:26;;;;;;;;;;;;;;;;;;5154002;27;19923;-51
2023/10/09 18:27:51;;;;;;;;;;;;;;;;;;5150514;27;20375;-51